This is the latest recevied weather packets stored in our database for station/object AA3CS-1. If no packets are shown the sender has not sent any weather packets the latest 10 day(s).
| Time | Temp. | Humidity | Pressure | Rain* | Wind** | Luminosity | Snow |
|---|---|---|---|---|---|---|---|
| 1777600216 | 6.11° C | 81% | 1014.9 hPa | 0 mm | - | 0 W/m² | - |
| 1777599616 | 6.67° C | 81% | 1014.9 hPa | 0 mm | - | 0 W/m² | - |
| 1777595716 | 7.78° C | 70% | 1014.6 hPa | 0 mm | - | 0 W/m² | - |
| 1777595136 | 7.78° C | 68% | 1014.5 hPa | 0 mm | - | 0 W/m² | - |
| 1777594215 | 8.33° C | 65% | 1014.6 hPa | 0 mm | - | 7 W/m² | - |
| 1777593316 | 8.89° C | 61% | 1014.5 hPa | 0 mm | - | 17 W/m² | - |
| 1777593035 | 8.89° C | 59% | 1014.5 hPa | 0 mm | - | 27 W/m² | - |
| 1777592715 | 8.89° C | 60% | 1014.5 hPa | 0 mm | - | 38 W/m² | - |
| 1777590315 | 10° C | 56% | 1014.6 hPa | 0 mm | - | 124 W/m² | - |
| 1777589715 | 10° C | 58% | 1014.6 hPa | 0 mm | - | 163 W/m² | - |
| 1777588818 | 11.11° C | 55% | 1014.7 hPa | 0 mm | - | 252 W/m² | - |
| 1777588218 | 10.56° C | 57% | 1014.7 hPa | 0 mm | - | 270 W/m² | - |
| 1777581917 | 11.11° C | 61% | 1014.5 hPa | 0 mm | - | 641 W/m² | - |
| 1777580717 | 10° C | 57% | 1014.6 hPa | 0 mm | - | 729 W/m² | - |
| 1777577717 | 10° C | 65% | 1014.7 hPa | 0 mm | - | 448 W/m² | - |
| 1777576817 | 9.44° C | 68% | 1014.8 hPa | 0 mm | - | 252 W/m² | - |
| 1777575317 | 8.89° C | 67% | 1014.8 hPa | 0 mm | - | 241 W/m² | - |
| 1777575017 | 9.44° C | 75% | 1014.9 hPa | 0 mm | - | 600 W/m² | - |
| 1777568717 | 6.67° C | 82% | 1015.1 hPa | 0 mm | - | 144 W/m² | - |
| 1777566317 | 6.67° C | 73% | 1014.9 hPa | 0 mm | - | 224 W/m² | - |
| 1777566057 | 6.67° C | 73% | 1015 hPa | 0 mm | - | 117 W/m² | - |
| 1777564517 | 6.67° C | 74% | 1014.7 hPa | 0 mm | - | 141 W/m² | - |
| 1777564217 | 6.67° C | 73% | 1014.8 hPa | 0 mm | - | 118 W/m² | - |
| 1777563617 | 7.22° C | 74% | 1014.8 hPa | 0 mm | - | 104 W/m² | - |
| 1777562717 | 6.67° C | 74% | 1014.7 hPa | 0 mm | - | 247 W/m² | - |
* Rain latest hour (hover to see other rain measurements)
** Current wind speed in m/s (hover to see current wind gust speed)